Alpine, New Jersey
Current Conditions -  °F | °C
As of 4:51 AM on Thursday 23 Oct 2014 (Local Time) from KTEB Reporting Station
Moderate Rain Moderate Rain  
Wind Chill: 52°   Ceiling: 2200
Heat Index: 52°   Visibility: 7mi
Dew Point: 46°   Wind: 14mph
Humidity: 80%   Direction: 360°N
Pressure: 29.7"   Gusts: 21mph
Location:  40.96°N, 73.93°W
Report Text: KTEB 230851Z 36012G18KT 7SM RA OVC022 11/08 A2970 RMK AO2 SLP058 P0001 60001 T01110078 55005 $
Loading
Personal Weather Stations






























Interactive Weather Map
Tropical Storm Tracking
New forecast layout! Learn more

10-Day Weather Forecast

Advertisements
Track Severe Weather on mobile